createdAt,value
2019-03-28T00:01:59.926Z,93.60
2019-03-28T00:04:31.949Z,93.60
2019-03-28T00:07:00.980Z,93.80
2019-03-28T00:09:34.040Z,93.80
2019-03-28T00:12:07.184Z,93.90
2019-03-28T00:14:38.323Z,93.90
2019-03-28T00:17:07.321Z,93.80
2019-03-28T00:19:36.456Z,94.00
2019-03-28T00:22:06.196Z,94.20
2019-03-28T00:24:49.903Z,94.20
2019-03-28T00:27:21.199Z,94.60
2019-03-28T00:29:54.269Z,94.60
2019-03-28T00:32:25.280Z,94.30
2019-03-28T00:34:54.280Z,94.20
2019-03-28T00:37:25.252Z,94.20
2019-03-28T00:39:54.035Z,94.10
2019-03-28T00:42:28.909Z,94.30
2019-03-28T00:44:58.074Z,94.40
2019-03-28T00:47:46.259Z,94.80
2019-03-28T00:50:23.072Z,94.80
2019-03-28T00:52:55.731Z,94.80
2019-03-28T00:55:29.678Z,94.70
2019-03-28T00:58:04.778Z,94.70
2019-03-28T01:00:46.882Z,94.60
2019-03-28T01:03:27.034Z,94.40
2019-03-28T01:06:09.197Z,94.40
2019-03-28T01:08:47.282Z,94.50
2019-03-28T01:11:23.644Z,94.70
2019-03-28T01:13:58.972Z,94.60
2019-03-28T01:16:39.922Z,94.60
2019-03-28T01:19:21.674Z,94.50
2019-03-28T01:21:58.317Z,94.60
2019-03-28T01:24:36.254Z,94.50
2019-03-28T01:27:09.168Z,94.40
2019-03-28T01:29:42.922Z,94.50
2019-03-28T01:32:17.291Z,94.40
2019-03-28T01:34:49.619Z,94.50
2019-03-28T01:37:26.319Z,94.90
2019-03-28T01:40:11.687Z,95.20
2019-03-28T01:42:42.053Z,95.20
2019-03-28T01:48:08.276Z,95.20
2019-03-28T01:50:41.188Z,95.00
2019-03-28T01:53:11.272Z,94.90
2019-03-28T01:55:41.357Z,95.00
2019-03-28T01:58:12.403Z,95.10
2019-03-28T02:00:41.666Z,95.40
2019-03-28T02:03:20.653Z,95.40
2019-03-28T02:06:06.260Z,95.60
2019-03-28T02:08:49.692Z,95.50
2019-03-28T02:11:23.646Z,95.20
2019-03-28T02:14:13.942Z,95.10
2019-03-28T02:17:00.260Z,95.10
2019-03-28T02:19:29.957Z,95.20
2019-03-28T02:22:11.850Z,95.20
2019-03-28T02:24:40.972Z,95.20
2019-03-28T02:27:23.764Z,95.40
2019-03-28T02:32:57.106Z,95.50
2019-03-28T02:35:21.556Z,95.30
2019-03-28T02:38:04.234Z,95.30
2019-03-28T02:41:00.544Z,95.60
2019-03-28T02:43:16.384Z,95.60
2019-03-28T02:45:52.252Z,95.80
2019-03-28T02:48:17.295Z,96.20
2019-03-28T02:50:48.518Z,96.00
2019-03-28T02:53:22.128Z,96.10
2019-03-28T02:55:53.734Z,95.90
2019-03-28T02:58:25.930Z,95.80
2019-03-28T03:01:00.488Z,96.00
2019-03-28T03:03:40.145Z,95.70
2019-03-28T03:07:20.874Z,96.10
2019-03-28T03:18:09.075Z,96.20
2019-03-28T03:21:00.000Z,96.10
2019-03-28T03:23:47.639Z,96.20
2019-03-28T03:26:39.376Z,96.20
2019-03-28T03:29:05.987Z,96.20
2019-03-28T03:31:50.801Z,96.30
2019-03-28T03:34:25.780Z,96.20
2019-03-28T03:37:01.873Z,95.70
2019-03-28T03:39:41.071Z,95.40
2019-03-28T03:42:17.277Z,95.80
2019-03-28T03:44:53.951Z,96.00
2019-03-28T03:47:31.931Z,96.20
2019-03-28T03:50:26.415Z,96.30
2019-03-28T03:53:04.688Z,96.10
2019-03-28T03:56:04.332Z,96.00
2019-03-28T04:17:21.653Z,96.30
2019-03-28T04:49:23.686Z,96.80
2019-03-28T05:03:01.248Z,96.60
2019-03-28T05:06:07.763Z,96.50
2019-03-28T05:08:23.107Z,96.40
2019-03-28T05:11:07.856Z,96.70
2019-03-28T05:13:49.772Z,96.80
2019-03-28T05:16:54.828Z,97.00
2019-03-28T05:19:10.424Z,97.00
2019-03-28T05:21:51.165Z,96.90
2019-03-28T05:24:34.460Z,96.90
2019-03-28T05:27:16.480Z,97.00
2019-03-28T05:30:10.439Z,97.00
2019-03-28T05:33:08.077Z,97.00
2019-03-28T05:35:36.921Z,96.90
2019-03-28T05:38:40.658Z,96.80
2019-03-28T05:41:17.281Z,96.70
2019-03-28T05:43:47.911Z,96.40
2019-03-28T05:46:31.315Z,96.30
2019-03-28T05:49:06.763Z,95.90
2019-03-28T05:51:42.680Z,95.40
2019-03-28T05:55:26.176Z,95.10
2019-03-28T07:01:36.755Z,90.00
2019-03-28T08:01:51.947Z,60.60
2019-03-28T08:07:25.616Z,56.70
2019-03-28T08:10:01.893Z,57.40
2019-03-28T08:12:30.878Z,56.80
2019-03-28T08:21:04.897Z,56.40
2019-03-28T08:25:29.997Z,57.30
2019-03-28T08:26:47.542Z,53.80
2019-03-28T08:29:18.063Z,54.80
2019-03-28T08:31:50.012Z,55.30
2019-03-28T08:34:18.953Z,54.40
2019-03-28T08:36:50.400Z,54.50
2019-03-28T08:39:22.815Z,55.20
2019-03-28T08:41:54.307Z,54.90
2019-03-28T08:44:26.233Z,54.30
2019-03-28T08:46:59.308Z,55.20
2019-03-28T08:49:28.296Z,53.20
2019-03-28T08:52:01.887Z,55.70
2019-03-28T08:54:30.794Z,55.80
2019-03-28T08:57:08.046Z,53.60
2019-03-28T08:59:48.281Z,51.70
2019-03-28T09:02:38.910Z,51.60
2019-03-28T09:04:54.199Z,50.40
2019-03-28T09:07:37.240Z,52.40
2019-03-28T09:16:18.605Z,51.20
2019-03-28T09:18:51.858Z,50.00
2019-03-28T09:21:24.355Z,49.40
2019-03-28T09:23:53.366Z,51.00
2019-03-28T09:26:22.354Z,50.20
2019-03-28T09:28:51.384Z,51.30
2019-03-28T09:31:34.339Z,51.20
2019-03-28T09:34:00.713Z,50.90
2019-03-28T09:36:34.167Z,50.90
2019-03-28T09:39:16.964Z,50.10
2019-03-28T09:42:00.363Z,49.20
2019-03-28T09:44:29.460Z,50.50
2019-03-28T09:47:08.383Z,51.30
2019-03-28T09:49:48.749Z,50.60
2019-03-28T09:52:19.300Z,49.90
2019-03-28T09:54:57.141Z,51.00
2019-03-28T09:57:26.272Z,49.50
2019-03-28T10:00:02.870Z,50.50
2019-03-28T10:02:34.905Z,49.40
2019-03-28T10:05:04.610Z,50.40
2019-03-28T10:07:33.590Z,50.00
2019-03-28T10:10:03.083Z,49.00
2019-03-28T10:12:35.182Z,49.40
2019-03-28T10:15:05.979Z,50.20
2019-03-28T10:17:36.413Z,51.20
2019-03-28T10:20:08.992Z,50.00
2019-03-28T10:22:38.070Z,48.60
2019-03-28T10:25:08.122Z,49.60
2019-03-28T10:27:37.616Z,51.70
2019-03-28T10:30:14.763Z,53.00
2019-03-28T10:32:43.809Z,53.30
2019-03-28T10:35:18.366Z,52.80
2019-03-28T10:37:47.398Z,51.40
2019-03-28T10:40:18.030Z,51.50
2019-03-28T10:42:54.744Z,51.30
2019-03-28T10:45:27.585Z,50.80
2019-03-28T10:47:56.674Z,50.80
2019-03-28T10:50:39.944Z,51.50
2019-03-28T10:52:56.219Z,51.10
2019-03-28T10:55:25.145Z,52.60
2019-03-28T10:57:55.716Z,52.40
2019-03-28T11:00:27.862Z,53.40
2019-03-28T11:03:05.952Z,56.50
2019-03-28T11:05:36.517Z,57.10
2019-03-28T11:08:07.197Z,55.30
2019-03-28T11:10:47.201Z,55.20
2019-03-28T11:13:16.254Z,55.60
2019-03-28T11:15:51.860Z,54.80
2019-03-28T11:18:20.833Z,52.70
2019-03-28T11:20:55.778Z,54.00
2019-03-28T11:23:26.624Z,54.40
2019-03-28T11:25:57.325Z,52.80
2019-03-28T11:28:48.308Z,53.20
2019-03-28T11:31:45.094Z,53.30
2019-03-28T11:34:08.845Z,54.20
2019-03-28T11:36:41.613Z,55.20
2019-03-28T11:39:20.847Z,55.30
2019-03-28T11:42:00.407Z,55.30
2019-03-28T11:44:50.156Z,56.10
2019-03-28T11:47:45.740Z,55.30
2019-03-28T11:50:19.374Z,52.70
2019-03-28T11:52:54.223Z,52.90
2019-03-28T11:55:29.487Z,52.00
2019-03-28T11:58:17.790Z,51.00
2019-03-28T12:00:57.059Z,51.20
2019-03-28T12:03:33.575Z,53.10
2019-03-28T12:06:13.729Z,53.60
2019-03-28T12:09:31.948Z,55.20
2019-03-28T12:11:19.261Z,56.30
2019-03-28T12:13:50.082Z,54.70
2019-03-28T12:16:23.310Z,55.10
2019-03-28T12:19:03.123Z,55.10
2019-03-28T12:21:39.806Z,55.40
2019-03-28T12:24:18.580Z,55.20
2019-03-28T12:26:55.234Z,56.30
2019-03-28T12:29:31.154Z,56.70
2019-03-28T12:32:23.659Z,57.00
2019-03-28T12:34:44.887Z,56.60
2019-03-28T12:37:17.960Z,57.60
2019-03-28T12:39:54.385Z,57.20
2019-03-28T12:42:32.574Z,58.10
2019-03-28T12:45:07.730Z,58.30
2019-03-28T12:47:43.343Z,57.50
2019-03-28T12:50:19.707Z,56.30
2019-03-28T12:52:50.906Z,57.50
2019-03-28T12:56:15.428Z,56.10
2019-03-28T13:02:02.994Z,55.50
2019-03-28T13:03:53.670Z,55.20
2019-03-28T13:06:26.679Z,57.60
2019-03-28T13:08:55.789Z,58.90
2019-03-28T13:11:45.683Z,60.30
2019-03-28T13:14:33.801Z,60.00
2019-03-28T13:17:30.761Z,58.80
2019-03-28T13:23:33.473Z,55.00
2019-03-28T13:29:26.251Z,56.20
2019-03-28T13:57:12.851Z,61.10
2019-03-28T13:59:41.819Z,59.80
2019-03-28T14:02:10.747Z,59.50
2019-03-28T14:04:48.668Z,60.30
2019-03-28T14:07:17.450Z,60.00
2019-03-28T14:09:46.578Z,59.70
2019-03-28T14:12:39.439Z,60.40
2019-03-28T14:21:05.319Z,62.10
2019-03-28T14:23:29.762Z,62.00
2019-03-28T14:26:04.829Z,63.00
2019-03-28T14:28:56.553Z,63.70
2019-03-28T14:46:27.067Z,63.90
2019-03-28T14:49:03.498Z,65.50
2019-03-28T14:51:32.538Z,65.10
2019-03-28T14:54:01.647Z,66.70
2019-03-28T14:56:37.172Z,66.50
2019-03-28T16:33:34.879Z,70.80
2019-03-28T16:36:09.827Z,71.40
2019-03-28T16:41:59.855Z,72.10
2019-03-28T16:44:52.080Z,71.50
2019-03-28T16:47:10.386Z,72.30
2019-03-28T16:53:26.598Z,73.50
2019-03-28T16:56:33.819Z,74.20
2019-03-28T16:58:58.423Z,74.30
2019-03-28T17:01:34.607Z,73.90
2019-03-28T17:19:58.503Z,75.30
2019-03-28T18:08:12.364Z,80.40
2019-03-28T18:33:38.761Z,83.80
2019-03-28T18:36:15.533Z,83.80
2019-03-28T18:38:55.168Z,84.50
2019-03-28T18:41:26.489Z,85.50
2019-03-28T18:44:12.307Z,86.30
2019-03-28T18:47:22.066Z,86.90
2019-03-28T19:34:10.422Z,90.20
2019-03-28T19:36:44.722Z,90.10
2019-03-28T19:39:36.937Z,90.20
2019-03-28T19:45:08.117Z,90.50
2019-03-28T20:33:54.817Z,92.40
2019-03-28T20:36:36.950Z,92.50
2019-03-28T20:39:06.191Z,93.00
2019-03-28T20:41:35.853Z,92.40
2019-03-28T20:44:04.826Z,92.50
2019-03-28T20:46:35.302Z,92.60
2019-03-28T20:49:05.003Z,92.80
2019-03-28T20:51:35.534Z,92.90
2019-03-28T20:57:01.172Z,93.00
2019-03-28T22:43:41.716Z,95.10
2019-03-28T22:46:10.774Z,95.00
2019-03-28T22:48:40.075Z,95.00
2019-03-28T22:51:09.207Z,95.00
2019-03-28T22:53:38.566Z,94.90
2019-03-28T22:56:07.520Z,94.70
2019-03-28T22:58:36.516Z,95.00
2019-03-28T23:01:05.599Z,95.50
2019-03-28T23:03:34.641Z,95.70
2019-03-28T23:06:03.571Z,95.60
2019-03-28T23:08:33.673Z,95.60
2019-03-28T23:11:05.083Z,95.60
2019-03-28T23:13:34.121Z,95.70
2019-03-28T23:22:15.195Z,95.70
2019-03-28T23:24:48.406Z,95.70
2019-03-28T23:27:17.371Z,95.70
2019-03-28T23:29:46.374Z,95.70
2019-03-28T23:32:16.952Z,95.60
2019-03-28T23:34:45.886Z,96.10
2019-03-28T23:37:24.535Z,96.00
2019-03-28T23:39:45.370Z,96.10
2019-03-28T23:42:17.737Z,96.10
2019-03-28T23:44:46.336Z,96.00
2019-03-28T23:47:15.385Z,96.00
2019-03-28T23:49:49.716Z,95.90
2019-03-28T23:52:18.784Z,95.80
2019-03-28T23:54:47.711Z,95.60
2019-03-28T23:57:16.704Z,95.60
2019-03-28T23:59:48.797Z,95.50
